createdAt,value
2022-09-29T00:01:02.281Z,272.73
2022-09-29T00:03:50.271Z,279.57
2022-09-29T00:06:38.281Z,268.40
2022-09-29T00:09:26.121Z,279.83
2022-09-29T00:12:14.114Z,280.87
2022-09-29T00:15:03.528Z,271.20
2022-09-29T00:18:12.679Z,270.93
2022-09-29T00:21:01.376Z,259.03
2022-09-29T00:23:50.353Z,257.77
2022-09-29T00:26:38.267Z,260.97
2022-09-29T00:29:26.523Z,241.57
2022-09-29T00:32:15.803Z,258.73
2022-09-29T00:35:03.935Z,265.20
2022-09-29T00:37:51.801Z,246.00
2022-09-29T00:40:39.679Z,263.63
2022-09-29T00:43:49.824Z,276.67
2022-09-29T00:46:43.432Z,246.20
2022-09-29T00:49:40.039Z,252.20
2022-09-29T00:52:32.146Z,254.83
2022-09-29T00:55:24.915Z,254.73
2022-09-29T00:58:23.667Z,256.80
2022-09-29T01:01:13.301Z,245.20
2022-09-29T01:04:06.683Z,249.43
2022-09-29T01:06:58.449Z,247.97
2022-09-29T01:09:46.987Z,241.17
2022-09-29T01:12:35.029Z,250.13
2022-09-29T01:15:23.374Z,252.23
2022-09-29T01:18:11.852Z,271.97
2022-09-29T01:21:10.250Z,245.77
2022-09-29T01:24:40.544Z,243.13
2022-09-29T01:27:51.075Z,232.60
2022-09-29T01:30:55.150Z,233.53
2022-09-29T01:33:51.962Z,238.97
2022-09-29T01:36:51.236Z,245.77
2022-09-29T01:39:43.393Z,241.13
2022-09-29T01:42:36.578Z,244.77
2022-09-29T01:45:31.403Z,245.80
2022-09-29T01:48:26.196Z,239.83
2022-09-29T01:51:18.815Z,241.90
2022-09-29T01:54:13.304Z,228.47
2022-09-29T01:57:08.079Z,228.73
2022-09-29T02:00:00.656Z,217.00
2022-09-29T02:02:52.976Z,229.00
2022-09-29T02:05:46.655Z,222.20
2022-09-29T02:08:39.228Z,227.27
2022-09-29T02:11:28.306Z,234.23
2022-09-29T02:14:20.322Z,235.63
2022-09-29T02:17:13.617Z,220.40
2022-09-29T02:20:01.863Z,244.67
2022-09-29T02:22:51.558Z,222.10
2022-09-29T02:25:41.011Z,225.23
2022-09-29T02:28:29.138Z,230.57
2022-09-29T02:31:17.490Z,238.90
2022-09-29T02:34:07.536Z,227.40
2022-09-29T02:37:01.278Z,217.23
2022-09-29T02:40:01.277Z,235.33
2022-09-29T02:43:00.764Z,228.37
2022-09-29T02:46:01.858Z,238.37
2022-09-29T02:49:14.436Z,216.57
2022-09-29T02:52:11.633Z,205.00
2022-09-29T02:55:08.607Z,228.23
2022-09-29T02:58:01.439Z,229.30
2022-09-29T03:00:49.592Z,224.97
2022-09-29T03:03:37.617Z,224.20
2022-09-29T03:06:25.705Z,236.50
2022-09-29T03:09:13.629Z,226.47
2022-09-29T03:12:03.087Z,230.93
2022-09-29T03:14:51.019Z,218.23
2022-09-29T03:17:39.336Z,207.23
2022-09-29T03:20:27.641Z,221.80
2022-09-29T03:23:15.515Z,216.13
2022-09-29T03:26:03.378Z,223.20
2022-09-29T03:28:52.707Z,220.70
2022-09-29T03:31:41.128Z,219.27
2022-09-29T03:34:29.084Z,230.47
2022-09-29T03:37:17.084Z,228.07
2022-09-29T03:40:06.453Z,233.83
2022-09-29T03:42:54.456Z,219.43
2022-09-29T03:45:50.605Z,228.93
2022-09-29T03:48:39.224Z,228.33
2022-09-29T03:51:27.136Z,223.27
2022-09-29T03:54:15.021Z,238.60
2022-09-29T03:57:02.947Z,226.83
2022-09-29T03:59:51.011Z,225.50
2022-09-29T04:02:40.261Z,240.87
2022-09-29T04:05:29.178Z,236.33
2022-09-29T04:08:17.696Z,236.47
2022-09-29T04:11:06.439Z,234.97
2022-09-29T04:13:54.525Z,249.87
2022-09-29T04:16:42.465Z,250.17
2022-09-29T04:19:31.743Z,222.80
2022-09-29T04:22:19.742Z,236.13
2022-09-29T04:25:08.189Z,246.33
2022-09-29T04:27:56.140Z,218.27
2022-09-29T04:30:44.383Z,253.53
2022-09-29T04:33:32.313Z,234.50
2022-09-29T04:36:21.565Z,250.27
2022-09-29T04:39:09.471Z,228.17
2022-09-29T04:41:57.352Z,236.43
2022-09-29T04:44:45.335Z,243.00
2022-09-29T04:47:33.253Z,234.67
2022-09-29T04:50:21.223Z,245.00
2022-09-29T04:53:10.858Z,233.77
2022-09-29T04:55:58.763Z,233.33
2022-09-29T04:58:46.673Z,248.20
2022-09-29T05:01:34.667Z,235.87
2022-09-29T05:04:22.706Z,234.40
2022-09-29T05:07:10.683Z,218.03
2022-09-29T05:09:59.933Z,234.37
2022-09-29T05:12:51.417Z,212.10
2022-09-29T05:15:39.327Z,232.87
2022-09-29T05:18:28.537Z,221.30
2022-09-29T05:21:16.164Z,250.70
2022-09-29T05:23:44.766Z,233.13
2022-09-29T05:26:14.931Z,235.27
2022-09-29T05:28:45.712Z,237.90
2022-09-29T05:31:13.598Z,255.83
2022-09-29T05:33:41.864Z,259.33
2022-09-29T05:36:11.960Z,247.13
2022-09-29T05:38:40.556Z,239.57
2022-09-29T05:41:10.199Z,242.33
2022-09-29T05:43:39.651Z,250.97
2022-09-29T05:46:09.840Z,254.30
2022-09-29T05:48:38.232Z,264.17
2022-09-29T05:51:10.594Z,254.67
2022-09-29T05:53:38.491Z,258.17
2022-09-29T05:56:07.954Z,254.13
2022-09-29T05:58:36.121Z,252.47
2022-09-29T06:01:08.372Z,262.83
2022-09-29T06:03:37.051Z,244.57
2022-09-29T06:06:09.247Z,252.40
2022-09-29T06:08:37.591Z,253.83
2022-09-29T06:11:07.326Z,250.43
2022-09-29T06:13:35.398Z,274.87
2022-09-29T06:16:03.467Z,249.70
2022-09-29T06:18:32.657Z,266.20
2022-09-29T06:21:04.794Z,257.60
2022-09-29T06:23:33.014Z,238.60
2022-09-29T06:26:02.542Z,250.37
2022-09-29T06:28:30.343Z,249.03
2022-09-29T06:31:00.752Z,256.40
2022-09-29T06:33:28.478Z,259.80
2022-09-29T06:36:46.808Z,272.90
2022-09-29T06:39:16.122Z,240.70
2022-09-29T06:41:48.498Z,270.97
2022-09-29T06:44:16.500Z,264.17
2022-09-29T06:46:44.460Z,272.93
2022-09-29T06:49:13.284Z,282.33
2022-09-29T06:51:46.340Z,280.17
2022-09-29T06:54:15.910Z,287.43
2022-09-29T06:56:43.681Z,287.20
2022-09-29T06:59:11.278Z,296.50
2022-09-29T07:01:38.919Z,281.33
2022-09-29T07:04:32.602Z,277.63
2022-09-29T07:07:01.566Z,266.43
2022-09-29T07:09:29.227Z,288.13
2022-09-29T07:11:56.857Z,306.47
2022-09-29T07:14:25.409Z,306.77
2022-09-29T07:16:53.818Z,324.53
2022-09-29T07:19:22.228Z,326.97
2022-09-29T07:21:50.348Z,301.47
2022-09-29T07:24:19.335Z,300.87
2022-09-29T07:26:46.987Z,299.73
2022-09-29T07:29:16.079Z,308.43
2022-09-29T07:31:51.510Z,297.43
2022-09-29T07:34:20.191Z,295.50
2022-09-29T07:36:47.929Z,345.50
2022-09-29T07:39:15.665Z,322.15
2022-09-29T07:41:44.587Z,328.42
2022-09-29T07:44:12.300Z,319.55
2022-09-29T07:46:39.979Z,319.00
2022-09-29T07:49:07.808Z,324.65
2022-09-29T07:51:35.490Z,332.70
2022-09-29T07:54:04.379Z,345.42
2022-09-29T07:56:33.169Z,325.45
2022-09-29T07:59:03.358Z,313.98
2022-09-29T08:01:32.057Z,303.08
2022-09-29T08:04:00.399Z,309.85
2022-09-29T08:06:28.260Z,325.67
2022-09-29T08:09:04.383Z,306.70
2022-09-29T08:11:34.086Z,305.10
2022-09-29T08:14:03.274Z,313.42
2022-09-29T08:16:31.702Z,330.75
2022-09-29T08:18:59.681Z,312.45
2022-09-29T08:21:27.546Z,317.80
2022-09-29T08:23:55.242Z,316.75
2022-09-29T08:26:37.651Z,320.38
2022-09-29T08:29:09.233Z,317.08
2022-09-29T08:31:38.882Z,327.25
2022-09-29T08:34:06.843Z,325.23
2022-09-29T08:36:34.447Z,319.45
2022-09-29T08:39:02.086Z,323.23
2022-09-29T08:41:43.993Z,330.67
2022-09-29T08:44:33.237Z,310.40
2022-09-29T08:47:14.935Z,318.13
2022-09-29T08:49:47.844Z,323.27
2022-09-29T08:52:19.911Z,326.95
2022-09-29T08:54:50.443Z,322.20
2022-09-29T08:57:20.879Z,339.23
2022-09-29T08:59:55.297Z,342.92
2022-09-29T09:02:44.800Z,321.38
2022-09-29T09:05:30.702Z,325.88
2022-09-29T09:08:04.517Z,309.92
2022-09-29T09:10:42.611Z,347.02
2022-09-29T09:13:32.072Z,336.50
2022-09-29T09:16:15.185Z,311.70
2022-09-29T09:19:02.531Z,328.98
2022-09-29T09:21:41.402Z,317.20
2022-09-29T09:24:24.813Z,338.42
2022-09-29T09:26:53.421Z,310.00
2022-09-29T09:29:27.348Z,336.67
2022-09-29T09:32:02.729Z,342.30
2022-09-29T09:34:44.010Z,325.00
2022-09-29T09:37:20.332Z,331.25
2022-09-29T09:39:53.446Z,332.95
2022-09-29T09:42:28.436Z,343.08
2022-09-29T09:45:00.859Z,328.83
2022-09-29T09:47:32.527Z,335.60
2022-09-29T09:50:03.963Z,332.60
2022-09-29T09:52:40.261Z,322.35
2022-09-29T09:55:16.432Z,338.15
2022-09-29T09:58:04.261Z,323.58
2022-09-29T10:00:37.235Z,311.25
2022-09-29T10:03:08.501Z,320.63
2022-09-29T10:05:38.984Z,310.63
2022-09-29T10:08:08.404Z,322.40
2022-09-29T10:10:39.175Z,326.58
2022-09-29T10:13:14.027Z,356.92
2022-09-29T10:15:46.538Z,346.70
2022-09-29T10:18:18.972Z,325.40
2022-09-29T10:20:47.295Z,333.05
2022-09-29T10:23:29.683Z,341.52
2022-09-29T10:26:05.438Z,332.80
2022-09-29T10:28:41.765Z,340.92
2022-09-29T10:31:22.271Z,334.42
2022-09-29T10:33:55.545Z,334.25
2022-09-29T10:36:24.770Z,347.13
2022-09-29T10:38:54.293Z,349.88
2022-09-29T10:41:22.113Z,343.80
2022-09-29T10:43:52.624Z,338.98
2022-09-29T10:46:49.172Z,346.23
2022-09-29T10:49:19.916Z,343.45
2022-09-29T10:51:55.627Z,323.77
2022-09-29T10:54:26.581Z,331.77
2022-09-29T10:56:55.793Z,328.35
2022-09-29T10:59:25.316Z,340.48
2022-09-29T11:01:56.310Z,354.48
2022-09-29T11:04:29.320Z,350.52
2022-09-29T11:06:57.715Z,333.35
2022-09-29T11:09:30.860Z,353.00
2022-09-29T11:12:05.075Z,339.48
2022-09-29T11:14:42.246Z,350.38
2022-09-29T11:17:23.716Z,335.15
2022-09-29T11:19:54.412Z,333.25
2022-09-29T11:22:50.533Z,358.52
2022-09-29T11:25:28.546Z,344.30
2022-09-29T11:28:08.381Z,345.23
2022-09-29T11:30:48.278Z,345.42
2022-09-29T11:33:27.153Z,343.30
2022-09-29T11:36:04.005Z,328.10
2022-09-29T11:38:57.008Z,337.55
2022-09-29T11:41:42.794Z,317.70
2022-09-29T11:44:27.517Z,312.33
2022-09-29T11:47:05.494Z,320.95
2022-09-29T11:49:50.457Z,333.27
2022-09-29T11:52:39.426Z,315.55
2022-09-29T11:55:41.389Z,313.92
2022-09-29T11:58:24.225Z,302.10
2022-09-29T12:01:03.157Z,316.02
2022-09-29T12:03:40.625Z,329.73
2022-09-29T12:06:39.399Z,323.80
2022-09-29T12:09:25.189Z,312.17
2022-09-29T12:15:04.389Z,317.80
2022-09-29T12:17:37.820Z,325.73
2022-09-29T12:20:14.798Z,345.45
2022-09-29T12:22:45.013Z,333.73
2022-09-29T12:25:18.144Z,343.83
2022-09-29T12:27:48.461Z,339.08
2022-09-29T12:30:21.402Z,324.00
2022-09-29T12:32:53.667Z,320.23
2022-09-29T12:35:26.680Z,314.27
2022-09-29T12:37:58.808Z,309.33
2022-09-29T12:40:33.819Z,301.73
2022-09-29T12:43:13.430Z,306.38
2022-09-29T12:45:49.339Z,298.98
2022-09-29T12:48:27.004Z,296.60
2022-09-29T12:51:02.092Z,286.98
2022-09-29T12:53:35.685Z,284.50
2022-09-29T12:56:10.004Z,276.98
2022-09-29T12:58:42.511Z,303.85
2022-09-29T13:01:23.698Z,292.73
2022-09-29T13:04:26.609Z,296.02
2022-09-29T13:07:25.141Z,267.08
2022-09-29T13:10:10.955Z,275.02
2022-09-29T13:12:59.597Z,255.32
2022-09-29T13:15:48.326Z,254.90
2022-09-29T13:19:14.526Z,247.95
2022-09-29T13:22:02.083Z,260.25
2022-09-29T13:24:51.442Z,271.00
2022-09-29T13:27:30.709Z,243.90
2022-09-29T13:30:06.374Z,245.02
2022-09-29T13:32:40.263Z,254.20
2022-09-29T13:35:16.242Z,255.27
2022-09-29T13:37:49.380Z,267.08
2022-09-29T13:40:21.647Z,272.38
2022-09-29T13:42:50.691Z,268.55
2022-09-29T13:45:41.105Z,239.43
2022-09-29T13:48:38.570Z,257.55
2022-09-29T13:51:42.755Z,253.93
2022-09-29T13:54:41.251Z,256.10
2022-09-29T13:57:28.127Z,262.77
2022-09-29T14:00:18.399Z,277.63
2022-09-29T14:02:52.044Z,268.40
2022-09-29T14:05:48.075Z,290.58
2022-09-29T14:08:21.812Z,258.80
2022-09-29T14:10:54.597Z,278.25
2022-09-29T14:13:27.421Z,302.63
2022-09-29T14:16:07.729Z,274.38
2022-09-29T14:18:40.245Z,287.55
2022-09-29T14:21:11.931Z,283.88
2022-09-29T14:23:51.640Z,291.02
2022-09-29T14:26:44.888Z,300.55
2022-09-29T14:29:18.013Z,284.33
2022-09-29T14:31:51.379Z,305.25
2022-09-29T14:34:23.424Z,292.45
2022-09-29T14:36:54.423Z,295.33
2022-09-29T14:39:27.184Z,303.58
2022-09-29T14:41:55.317Z,310.75
2022-09-29T14:44:27.242Z,307.92
2022-09-29T14:47:42.051Z,307.38
2022-09-29T14:50:49.905Z,284.15
2022-09-29T14:53:36.138Z,297.80
2022-09-29T14:56:17.306Z,307.58
2022-09-29T14:59:05.337Z,306.20
2022-09-29T15:01:37.482Z,309.95
2022-09-29T15:04:09.337Z,321.48
2022-09-29T15:06:47.169Z,285.27
2022-09-29T15:09:18.289Z,299.10
2022-09-29T15:11:50.770Z,291.33
2022-09-29T15:14:25.130Z,303.48
2022-09-29T15:17:06.882Z,295.77
2022-09-29T15:19:55.288Z,292.67
2022-09-29T15:23:10.892Z,294.58
2022-09-29T15:25:42.399Z,297.13
2022-09-29T15:28:16.162Z,305.65
2022-09-29T15:30:44.956Z,313.15
2022-09-29T15:33:21.882Z,322.20
2022-09-29T15:35:53.326Z,324.90
2022-09-29T15:38:34.443Z,326.83
2022-09-29T15:41:16.581Z,322.92
2022-09-29T15:43:46.691Z,318.55
2022-09-29T15:46:18.042Z,327.42
2022-09-29T15:49:07.245Z,310.25
2022-09-29T15:51:35.925Z,311.25
2022-09-29T15:54:07.281Z,323.20
2022-09-29T15:56:57.262Z,330.42
2022-09-29T15:59:41.510Z,330.80
2022-09-29T16:02:18.529Z,293.17
2022-09-29T16:04:49.652Z,305.13
2022-09-29T16:07:24.622Z,333.02
2022-09-29T16:09:52.792Z,327.67
2022-09-29T16:12:21.941Z,365.58
2022-09-29T16:14:55.341Z,352.50
2022-09-29T16:17:23.077Z,362.60
2022-09-29T16:19:51.110Z,372.13
2022-09-29T16:22:23.840Z,374.55
2022-09-29T16:25:08.261Z,360.25
2022-09-29T16:27:46.249Z,368.35
2022-09-29T16:30:24.583Z,354.67
2022-09-29T16:32:58.524Z,372.05
2022-09-29T16:35:42.960Z,353.13
2022-09-29T16:38:20.411Z,345.35
2022-09-29T16:40:48.541Z,371.52
2022-09-29T16:43:24.361Z,379.35
2022-09-29T16:45:53.905Z,350.15
2022-09-29T16:48:22.141Z,334.25
2022-09-29T16:50:50.606Z,356.73
2022-09-29T16:53:26.885Z,340.38
2022-09-29T16:55:58.715Z,335.13
2022-09-29T16:58:28.920Z,322.13
2022-09-29T17:00:57.476Z,324.90
2022-09-29T17:03:25.182Z,349.10
2022-09-29T17:05:53.657Z,327.88
2022-09-29T17:08:23.993Z,337.00
2022-09-29T17:10:51.987Z,338.17
2022-09-29T17:13:20.394Z,330.92
2022-09-29T17:15:52.159Z,347.38
2022-09-29T17:18:21.960Z,343.25
2022-09-29T17:20:49.587Z,329.52
2022-09-29T17:23:17.243Z,335.08
2022-09-29T17:25:47.207Z,340.05
2022-09-29T17:28:16.315Z,339.08
2022-09-29T17:30:47.327Z,349.40
2022-09-29T17:33:18.144Z,325.20
2022-09-29T17:35:51.715Z,337.63
2022-09-29T17:38:22.682Z,339.40
2022-09-29T17:40:53.669Z,335.05
2022-09-29T17:43:23.329Z,336.92
2022-09-29T17:45:51.667Z,336.65
2022-09-29T17:48:20.652Z,322.23
2022-09-29T17:50:49.951Z,342.75
2022-09-29T17:53:18.543Z,315.00
2022-09-29T17:55:49.481Z,322.27
2022-09-29T17:58:18.614Z,320.95
2022-09-29T18:00:48.623Z,342.33
2022-09-29T18:03:18.230Z,316.65
2022-09-29T18:05:48.852Z,306.63
2022-09-29T18:08:18.372Z,309.48
2022-09-29T18:10:52.344Z,288.95
2022-09-29T18:13:20.093Z,311.30
2022-09-29T18:15:48.033Z,293.25
2022-09-29T18:18:18.013Z,319.75
2022-09-29T18:20:47.188Z,293.92
2022-09-29T18:23:15.450Z,305.38
2022-09-29T18:25:47.663Z,303.25
2022-09-29T18:28:16.599Z,305.30
2022-09-29T18:30:46.920Z,276.20
2022-09-29T18:33:16.716Z,322.05
2022-09-29T18:35:47.458Z,299.42
2022-09-29T18:38:15.124Z,315.08
2022-09-29T18:40:42.817Z,327.75
2022-09-29T18:43:13.208Z,312.08
2022-09-29T18:45:42.268Z,297.50
2022-09-29T18:48:13.566Z,326.95
2022-09-29T18:50:43.888Z,304.40
2022-09-29T18:53:13.993Z,306.20
2022-09-29T18:55:42.532Z,305.10
2022-09-29T18:58:13.731Z,292.63
2022-09-29T19:00:44.775Z,311.73
2022-09-29T19:03:12.489Z,304.45
2022-09-29T19:05:43.227Z,327.20
2022-09-29T19:08:14.050Z,303.73
2022-09-29T19:10:47.827Z,298.50
2022-09-29T19:13:16.015Z,306.13
2022-09-29T19:15:44.801Z,311.73
2022-09-29T19:18:23.290Z,325.55
2022-09-29T19:20:52.040Z,318.00
2022-09-29T19:23:20.992Z,304.40
2022-09-29T19:25:49.906Z,318.00
2022-09-29T19:28:18.941Z,321.67
2022-09-29T19:30:47.697Z,323.85
2022-09-29T19:33:17.820Z,318.48
2022-09-29T19:35:48.297Z,318.95
2022-09-29T19:38:16.422Z,326.38
2022-09-29T19:40:46.603Z,309.42
2022-09-29T19:43:15.187Z,318.20
2022-09-29T19:45:44.704Z,319.15
2022-09-29T19:48:16.148Z,321.65
2022-09-29T19:51:01.635Z,315.92
2022-09-29T19:53:29.337Z,323.00
2022-09-29T19:55:58.628Z,336.40
2022-09-29T19:58:26.881Z,324.77
2022-09-29T20:00:57.266Z,322.15
2022-09-29T20:03:47.863Z,300.38
2022-09-29T20:06:36.632Z,308.20
2022-09-29T20:09:24.915Z,291.83
2022-09-29T20:12:19.448Z,325.83
2022-09-29T20:15:08.918Z,306.73
2022-09-29T20:17:56.984Z,304.35
2022-09-29T20:20:44.939Z,317.13
2022-09-29T20:23:32.868Z,290.30
2022-09-29T20:26:20.913Z,330.95
2022-09-29T20:29:10.159Z,303.70
2022-09-29T20:31:58.186Z,296.02
2022-09-29T20:34:46.381Z,308.65
2022-09-29T20:37:35.096Z,296.40
2022-09-29T20:40:22.950Z,313.48
2022-09-29T20:43:14.166Z,312.80
2022-09-29T20:46:05.383Z,322.40
2022-09-29T20:48:54.912Z,307.15
2022-09-29T20:51:43.273Z,328.63
2022-09-29T20:54:31.198Z,321.63
2022-09-29T20:57:19.424Z,294.05
2022-09-29T21:00:09.883Z,322.53
2022-09-29T21:02:59.174Z,297.73
2022-09-29T21:05:47.600Z,303.52
2022-09-29T21:08:36.477Z,320.38
2022-09-29T21:11:24.490Z,297.60
2022-09-29T21:14:16.692Z,312.07
2022-09-29T21:17:04.612Z,322.73
2022-09-29T21:19:53.832Z,299.00
2022-09-29T21:22:41.700Z,318.20
2022-09-29T21:25:31.777Z,323.13
2022-09-29T21:28:19.658Z,302.43
2022-09-29T21:31:10.538Z,302.97
2022-09-29T21:34:01.425Z,308.73
2022-09-29T21:36:50.733Z,315.20
2022-09-29T21:39:38.626Z,314.50
2022-09-29T21:42:27.285Z,309.57
2022-09-29T21:45:15.191Z,314.50
2022-09-29T21:48:09.042Z,298.53
2022-09-29T21:51:03.279Z,314.73
2022-09-29T21:53:54.387Z,276.23
2022-09-29T21:56:44.254Z,293.83
2022-09-29T21:59:32.244Z,288.37
2022-09-29T22:02:20.305Z,303.63
2022-09-29T22:05:08.762Z,302.43
2022-09-29T22:07:56.699Z,316.10
2022-09-29T22:10:49.085Z,307.67
2022-09-29T22:13:37.825Z,320.17
2022-09-29T22:16:28.962Z,319.13
2022-09-29T22:19:32.670Z,324.20
2022-09-29T22:22:20.709Z,299.07
2022-09-29T22:25:09.217Z,317.07
2022-09-29T22:27:58.874Z,294.43
2022-09-29T22:30:46.776Z,301.43
2022-09-29T22:33:35.753Z,304.30
2022-09-29T22:36:24.092Z,315.27
2022-09-29T22:39:12.058Z,292.27
2022-09-29T22:42:01.180Z,311.70
2022-09-29T22:44:50.402Z,283.67
2022-09-29T22:47:38.290Z,295.87
2022-09-29T22:50:27.579Z,305.07
2022-09-29T22:53:16.686Z,293.77
2022-09-29T22:56:10.348Z,298.87
2022-09-29T22:59:00.931Z,329.00
2022-09-29T23:01:50.218Z,293.33
2022-09-29T23:04:38.167Z,304.33
2022-09-29T23:07:26.094Z,308.73
2022-09-29T23:10:14.031Z,299.40
2022-09-29T23:13:02.271Z,309.27
2022-09-29T23:15:51.013Z,312.20
2022-09-29T23:18:43.895Z,302.30
2022-09-29T23:21:34.310Z,283.13
2022-09-29T23:24:24.303Z,311.87
2022-09-29T23:27:12.191Z,312.07
2022-09-29T23:30:00.288Z,301.47
2022-09-29T23:32:48.248Z,313.53
2022-09-29T23:35:37.469Z,309.07
2022-09-29T23:38:42.918Z,322.87
2022-09-29T23:41:32.196Z,301.80
2022-09-29T23:44:22.379Z,299.17
2022-09-29T23:47:10.281Z,292.87
2022-09-29T23:49:58.201Z,286.57
2022-09-29T23:52:47.434Z,324.70
2022-09-29T23:55:35.438Z,299.70
2022-09-29T23:58:23.359Z,332.20
